createdAt,value
2017-10-13T00:00:36.098Z,54.4
2017-10-13T00:01:44.749Z,54.4
2017-10-13T00:02:53.752Z,54.4
2017-10-13T00:04:02.769Z,54.6
2017-10-13T00:05:12.109Z,54.4
2017-10-13T00:06:21.433Z,54.5
2017-10-13T00:07:30.132Z,54.5
2017-10-13T00:08:39.106Z,54.79
2017-10-13T00:09:48.431Z,54.4
2017-10-13T00:10:58.106Z,54.4
2017-10-13T00:12:07.108Z,54.4
2017-10-13T00:13:16.425Z,54.31
2017-10-13T00:14:25.732Z,54.5
2017-10-13T00:15:35.119Z,54.4
2017-10-13T00:16:44.456Z,54.4
2017-10-13T00:17:53.443Z,54.31
2017-10-13T00:19:02.541Z,54.5
2017-10-13T00:20:11.540Z,54.5
2017-10-13T00:21:20.540Z,54.4
2017-10-13T00:22:29.546Z,54.4
2017-10-13T00:23:38.209Z,54.4
2017-10-13T00:24:47.866Z,54.4
2017-10-13T00:25:56.852Z,54.4
2017-10-13T00:27:05.516Z,54.4
2017-10-13T00:28:14.503Z,54.4
2017-10-13T00:29:23.473Z,54.4
2017-10-13T00:30:33.132Z,54.4
2017-10-13T00:31:42.125Z,54.4
2017-10-13T00:32:51.114Z,54.5
2017-10-13T00:34:00.136Z,54.5
2017-10-13T00:35:09.130Z,54.4
2017-10-13T00:36:19.156Z,54.4
2017-10-13T00:37:28.136Z,54.4
2017-10-13T00:38:37.461Z,54.4
2017-10-13T00:39:46.103Z,54.4
2017-10-13T00:40:55.433Z,54.5
2017-10-13T00:42:04.497Z,54.4
2017-10-13T00:43:14.169Z,54.4
2017-10-13T00:44:23.497Z,54.4
2017-10-13T00:45:32.494Z,54.6
2017-10-13T00:46:41.802Z,54.5
2017-10-13T00:47:50.785Z,54.4
2017-10-13T00:48:59.765Z,54.4
2017-10-13T00:50:08.418Z,54.88
2017-10-13T00:51:17.069Z,54.4
2017-10-13T00:52:26.038Z,54.69
2017-10-13T00:53:35.130Z,54.88
2017-10-13T00:54:43.801Z,54.4
2017-10-13T00:55:52.480Z,54.4
2017-10-13T00:57:01.199Z,54.5
2017-10-13T00:58:10.181Z,54.6
2017-10-13T00:59:19.159Z,54.69
2017-10-13T01:00:28.151Z,54.4
2017-10-13T01:01:36.819Z,54.5
2017-10-13T01:02:45.792Z,54.69
2017-10-13T01:03:54.786Z,54.5
2017-10-13T01:05:03.779Z,54.4
2017-10-13T01:06:12.455Z,54.4
2017-10-13T01:07:21.766Z,54.6
2017-10-13T01:08:30.736Z,54.4
2017-10-13T01:09:39.738Z,54.69
2017-10-13T01:10:48.732Z,54.31
2017-10-13T01:11:58.064Z,54.4
2017-10-13T01:13:07.092Z,54.6
2017-10-13T01:14:15.823Z,54.4
2017-10-13T01:15:24.838Z,54.69
2017-10-13T01:16:33.521Z,54.5
2017-10-13T01:17:42.215Z,54.4
2017-10-13T01:18:51.614Z,54.21
2017-10-13T01:20:00.278Z,54.5
2017-10-13T01:21:09.599Z,54.4
2017-10-13T01:22:18.284Z,54.4
2017-10-13T01:23:27.340Z,54.4
2017-10-13T01:24:36.345Z,54.4
2017-10-13T01:25:45.010Z,54.4
2017-10-13T01:26:54.001Z,54.4
2017-10-13T01:28:02.988Z,54.4
2017-10-13T01:29:12.290Z,54.69
2017-10-13T01:30:21.304Z,54.4
2017-10-13T01:31:30.310Z,54.4
2017-10-13T01:32:39.304Z,54.4
2017-10-13T01:33:48.285Z,54.4
2017-10-13T01:34:57.331Z,54.6
2017-10-13T01:36:07.288Z,54.4
2017-10-13T01:37:15.947Z,54.4
2017-10-13T01:38:24.922Z,54.5
2017-10-13T01:39:34.547Z,54.4
2017-10-13T01:40:43.207Z,54.5
2017-10-13T01:41:52.533Z,54.4
2017-10-13T01:43:01.546Z,54.5
2017-10-13T01:44:10.549Z,54.6
2017-10-13T01:45:19.998Z,54.4
2017-10-13T01:46:29.328Z,54.4
2017-10-13T01:47:38.340Z,54.31
2017-10-13T01:48:46.999Z,54.4
2017-10-13T01:49:56.628Z,54.4
2017-10-13T01:51:05.293Z,54.5
2017-10-13T01:52:14.617Z,54.4
2017-10-13T01:53:23.927Z,54.31
2017-10-13T01:54:32.915Z,54.5
2017-10-13T01:55:41.650Z,54.4
2017-10-13T01:56:50.631Z,54.4
2017-10-13T01:58:00.605Z,54.4
2017-10-13T01:59:10.249Z,54.6
2017-10-13T02:00:19.584Z,54.5
2017-10-13T02:01:28.242Z,54.4
2017-10-13T02:02:37.246Z,54.5
2017-10-13T02:03:45.917Z,54.4
2017-10-13T02:04:54.575Z,54.4
2017-10-13T02:06:03.901Z,54.4
2017-10-13T02:07:12.581Z,54.4
2017-10-13T02:08:21.976Z,54.4
2017-10-13T02:09:30.991Z,54.6
2017-10-13T02:10:39.972Z,54.5
2017-10-13T02:11:49.284Z,54.21
2017-10-13T02:12:57.973Z,54.4
2017-10-13T02:14:07.619Z,54.5
2017-10-13T02:15:16.283Z,54.31
2017-10-13T02:16:25.599Z,54.4
2017-10-13T02:17:35.269Z,54.4
2017-10-13T02:18:43.927Z,54.5
2017-10-13T02:19:52.922Z,54.31
2017-10-13T02:21:01.659Z,54.4
2017-10-13T02:22:10.643Z,54.4
2017-10-13T02:23:19.632Z,54.31
2017-10-13T02:24:28.296Z,54.4
2017-10-13T02:25:37.965Z,54.31
2017-10-13T02:26:46.948Z,54.4
2017-10-13T02:27:56.600Z,54.4
2017-10-13T02:29:05.266Z,54.21
2017-10-13T02:30:14.898Z,54.4
2017-10-13T02:31:24.554Z,54.6
2017-10-13T02:32:33.545Z,54.4
2017-10-13T02:33:42.876Z,54.4
2017-10-13T02:34:52.179Z,54.4
2017-10-13T02:36:01.169Z,54.4
2017-10-13T02:37:10.159Z,54.4
2017-10-13T02:38:18.844Z,54.31
2017-10-13T02:39:28.170Z,54.31
2017-10-13T02:40:37.490Z,54.21
2017-10-13T02:41:46.461Z,54.31
2017-10-13T02:42:55.781Z,54.31
2017-10-13T02:44:05.116Z,54.4
2017-10-13T02:45:14.116Z,54.31
2017-10-13T02:46:22.785Z,54.31
2017-10-13T02:47:31.775Z,54.31
2017-10-13T02:48:41.080Z,54.21
2017-10-13T02:49:50.080Z,54.31
2017-10-13T02:50:59.728Z,54.31
2017-10-13T02:52:08.719Z,54.4
2017-10-13T02:53:17.716Z,54.31
2017-10-13T02:54:26.709Z,54.4
2017-10-13T02:55:36.042Z,54.4
2017-10-13T02:56:44.693Z,54.31
2017-10-13T02:57:53.373Z,54.4
2017-10-13T02:59:02.352Z,54.31
2017-10-13T03:00:11.341Z,54.4
2017-10-13T03:01:20.053Z,54.31
2017-10-13T03:02:29.049Z,54.21
2017-10-13T03:03:38.387Z,54.31
2017-10-13T03:04:47.705Z,55.08
2017-10-13T03:05:56.355Z,54.4
2017-10-13T03:07:05.358Z,54.4
2017-10-13T03:08:14.703Z,54.4
2017-10-13T03:09:24.377Z,54.5
2017-10-13T03:10:33.074Z,54.21
2017-10-13T03:11:43.418Z,54.4
2017-10-13T03:12:52.079Z,55.18
2017-10-13T03:14:00.800Z,54.4
2017-10-13T03:15:10.129Z,54.6
2017-10-13T03:16:18.770Z,54.31
2017-10-13T03:17:27.427Z,54.6
2017-10-13T03:18:36.070Z,54.4
2017-10-13T03:19:45.058Z,54.4
2017-10-13T03:20:54.026Z,54.5
2017-10-13T03:22:03.661Z,54.5
2017-10-13T03:23:12.654Z,54.6
2017-10-13T03:24:21.307Z,54.4
2017-10-13T03:25:30.281Z,54.69
2017-10-13T03:26:39.258Z,54.4
2017-10-13T03:27:47.927Z,54.4
2017-10-13T03:28:57.587Z,54.5
2017-10-13T03:30:06.582Z,54.5
2017-10-13T03:31:15.245Z,54.6
2017-10-13T03:32:24.881Z,54.4
2017-10-13T03:33:34.180Z,54.4
2017-10-13T03:34:43.170Z,54.4
2017-10-13T03:35:52.832Z,54.4
2017-10-13T03:37:02.152Z,54.4
2017-10-13T03:38:11.467Z,54.4
2017-10-13T03:39:20.119Z,54.4
2017-10-13T03:40:28.883Z,54.4
2017-10-13T03:41:37.861Z,54.6
2017-10-13T03:42:47.509Z,54.69
2017-10-13T03:43:56.169Z,54.5
2017-10-13T03:45:04.859Z,54.69
2017-10-13T03:46:13.563Z,54.5
2017-10-13T03:47:23.237Z,54.66
2017-10-13T03:48:31.903Z,54.6
2017-10-13T03:49:40.573Z,54.4
2017-10-13T03:50:50.254Z,54.69
2017-10-13T03:51:59.902Z,54.4
2017-10-13T03:53:08.889Z,54.69
2017-10-13T03:54:17.921Z,54.5
2017-10-13T03:55:27.564Z,54.4
2017-10-13T03:56:36.216Z,54.6
2017-10-13T03:57:45.207Z,54.6
2017-10-13T03:58:54.843Z,54.5
2017-10-13T04:00:03.830Z,54.5
2017-10-13T04:01:13.145Z,54.4
2017-10-13T04:02:21.865Z,54.4
2017-10-13T04:03:31.183Z,54.31
2017-10-13T04:04:40.848Z,54.4
2017-10-13T04:05:50.484Z,54.47
2017-10-13T04:06:59.492Z,54.4
2017-10-13T04:08:08.817Z,54.5
2017-10-13T04:09:17.468Z,54.5
2017-10-13T04:10:26.789Z,54.5
2017-10-13T04:11:36.095Z,54.4
2017-10-13T04:12:45.440Z,54.38
2017-10-13T04:13:54.412Z,54.38
2017-10-13T04:15:04.066Z,54.4
2017-10-13T04:16:13.113Z,54.18
2017-10-13T04:17:21.770Z,54.4
2017-10-13T04:18:30.832Z,54.31
2017-10-13T04:19:39.497Z,55.05
2017-10-13T04:20:48.475Z,54.4
2017-10-13T04:21:57.454Z,54.31
2017-10-13T04:23:06.767Z,54.6
2017-10-13T04:24:16.411Z,54.28
2017-10-13T04:25:25.426Z,54.5
2017-10-13T04:26:34.748Z,54.31
2017-10-13T04:27:43.740Z,54.4
2017-10-13T04:28:52.738Z,54.31
2017-10-13T04:30:01.730Z,54.5
2017-10-13T04:31:11.069Z,54.57
2017-10-13T04:32:20.050Z,54.5
2017-10-13T04:33:29.040Z,54.47
2017-10-13T04:34:38.034Z,54.5
2017-10-13T04:35:47.356Z,54.57
2017-10-13T04:36:56.009Z,54.6
2017-10-13T04:38:05.008Z,54.4
2017-10-13T04:39:14.316Z,54.38
2017-10-13T04:40:22.971Z,54.6
2017-10-13T04:41:32.327Z,54.4
2017-10-13T04:42:41.647Z,54.4
2017-10-13T04:43:50.634Z,54.4
2017-10-13T04:44:59.952Z,54.47
2017-10-13T04:46:08.607Z,54.4
2017-10-13T04:47:17.266Z,54.4
2017-10-13T04:48:25.922Z,54.4
2017-10-13T04:49:35.240Z,54.31
2017-10-13T04:50:44.240Z,54.6
2017-10-13T04:51:53.244Z,54.6
2017-10-13T04:53:01.898Z,54.5
2017-10-13T04:54:11.210Z,54.28
2017-10-13T04:55:20.520Z,54.31
2017-10-13T04:56:29.180Z,54.6
2017-10-13T04:57:38.232Z,54.6
2017-10-13T04:58:47.218Z,54.31
2017-10-13T04:59:55.869Z,54.02
2017-10-13T05:01:05.864Z,54.5
2017-10-13T05:02:14.523Z,54.02
2017-10-13T05:03:23.903Z,54.02
2017-10-13T05:04:33.250Z,53.99
2017-10-13T05:05:42.702Z,54.31
2017-10-13T05:06:51.717Z,54.4
2017-10-13T05:08:01.048Z,54.4
2017-10-13T05:09:10.039Z,54.4
2017-10-13T05:10:18.703Z,54.4
2017-10-13T05:11:28.076Z,53.83
2017-10-13T05:12:36.761Z,54.31
2017-10-13T05:13:45.421Z,54.4
2017-10-13T05:14:54.774Z,54.31
2017-10-13T05:16:04.105Z,54.5
2017-10-13T05:17:13.759Z,54.4
2017-10-13T05:18:22.753Z,54.4
2017-10-13T05:19:31.760Z,54.4
2017-10-13T05:20:40.767Z,54.31
2017-10-13T05:21:50.414Z,54.11
2017-10-13T05:23:00.093Z,54.4
2017-10-13T05:24:09.447Z,53.92
2017-10-13T05:25:18.437Z,54.11
2017-10-13T05:26:27.099Z,54.11
2017-10-13T05:27:36.390Z,53.92
2017-10-13T05:28:46.036Z,54.31
2017-10-13T05:29:55.677Z,54.21
2017-10-13T05:31:04.649Z,54.21
2017-10-13T05:32:13.971Z,54.11
2017-10-13T05:33:23.644Z,53.92
2017-10-13T05:34:32.649Z,53.92
2017-10-13T05:35:42.078Z,54.02
2017-10-13T05:36:51.066Z,53.92
2017-10-13T05:38:00.394Z,54.02
2017-10-13T05:39:09.070Z,53.83
2017-10-13T05:40:18.087Z,54.11
2017-10-13T05:41:26.749Z,54.02
2017-10-13T05:42:36.073Z,53.47
2017-10-13T05:43:45.095Z,53.56
2017-10-13T05:44:54.091Z,53.75
2017-10-13T05:46:03.110Z,53.66
2017-10-13T05:47:12.446Z,53.66
2017-10-13T05:48:22.100Z,53.37
2017-10-13T05:49:30.758Z,53.37
2017-10-13T05:50:39.427Z,53.66
2017-10-13T05:51:48.399Z,53.27
2017-10-13T05:52:58.323Z,53.56
2017-10-13T05:54:07.856Z,53.47
2017-10-13T05:55:17.840Z,53.47
2017-10-13T05:56:27.857Z,53.47
2017-10-13T05:57:36.828Z,53.56
2017-10-13T05:58:45.830Z,53.66
2017-10-13T05:59:54.554Z,53.47
2017-10-13T06:01:03.634Z,54.43
2017-10-13T06:02:12.992Z,53.37
2017-10-13T06:03:21.983Z,53.75
2017-10-13T06:04:30.733Z,53.66
2017-10-13T06:05:39.909Z,54.24
2017-10-13T06:06:49.266Z,54.14
2017-10-13T06:07:58.251Z,53.85
2017-10-13T06:09:07.246Z,54.05
2017-10-13T06:10:16.622Z,53.83
2017-10-13T06:11:25.661Z,53.85
2017-10-13T06:12:34.406Z,53.95
2017-10-13T06:13:43.079Z,53.75
2017-10-13T06:14:52.397Z,54.05
2017-10-13T06:16:01.446Z,53.85
2017-10-13T06:17:10.786Z,53.83
2017-10-13T06:18:19.460Z,53.92
2017-10-13T06:19:28.478Z,53.85
2017-10-13T06:20:37.824Z,53.95
2017-10-13T06:21:46.818Z,54.05
2017-10-13T06:22:55.830Z,53.85
2017-10-13T06:24:05.511Z,53.95
2017-10-13T06:25:14.166Z,54.05
2017-10-13T06:26:23.528Z,53.85
2017-10-13T06:27:32.212Z,53.75
2017-10-13T06:28:41.231Z,53.66
2017-10-13T06:29:50.241Z,53.75
2017-10-13T06:30:59.244Z,53.85
2017-10-13T06:32:08.902Z,53.85
2017-10-13T06:33:18.220Z,54.05
2017-10-13T06:34:27.200Z,53.85
2017-10-13T06:35:36.186Z,53.85
2017-10-13T06:36:45.826Z,54.05
2017-10-13T06:37:54.499Z,53.95
2017-10-13T06:39:03.495Z,53.66
2017-10-13T06:40:12.834Z,53.95
2017-10-13T06:41:21.822Z,54.05
2017-10-13T06:42:31.168Z,53.95
2017-10-13T06:43:40.539Z,54.14
2017-10-13T06:44:49.885Z,53.85
2017-10-13T06:45:58.874Z,53.95
2017-10-13T06:47:08.529Z,53.83
2017-10-13T06:48:17.850Z,54.31
2017-10-13T06:49:26.828Z,54.14
2017-10-13T06:50:36.239Z,54.14
2017-10-13T06:51:44.902Z,54.24
2017-10-13T06:52:54.545Z,54.21
2017-10-13T06:54:03.876Z,54.24
2017-10-13T06:55:13.211Z,54.14
2017-10-13T06:56:21.875Z,54.24
2017-10-13T06:57:31.190Z,54.14
2017-10-13T06:58:40.531Z,54.14
2017-10-13T06:59:50.194Z,54.14
2017-10-13T07:00:58.849Z,54.14
2017-10-13T07:02:08.508Z,54.24
2017-10-13T07:03:17.829Z,54.14
2017-10-13T07:04:26.809Z,54.24
2017-10-13T07:05:35.796Z,54.24
2017-10-13T07:06:44.787Z,54.11
2017-10-13T07:07:53.815Z,54.24
2017-10-13T07:09:02.788Z,54.24
2017-10-13T07:10:11.763Z,54.14
2017-10-13T07:11:21.395Z,54.24
2017-10-13T07:12:30.045Z,54.33
2017-10-13T07:13:39.678Z,54.31
2017-10-13T07:14:49.015Z,54.31
2017-10-13T07:15:58.021Z,54.24
2017-10-13T07:17:07.346Z,54.31
2017-10-13T07:18:16.328Z,54.24
2017-10-13T07:20:34.067Z,54.14
2017-10-13T07:21:43.071Z,54.14
2017-10-13T07:22:52.061Z,54.21
2017-10-13T07:24:00.725Z,54.14
2017-10-13T07:25:10.069Z,54.14
2017-10-13T07:26:19.091Z,54.24
2017-10-13T07:27:27.739Z,53.95
2017-10-13T07:28:37.385Z,53.85
2017-10-13T07:29:47.042Z,53.95
2017-10-13T07:30:56.795Z,53.95
2017-10-13T07:32:05.464Z,54.24
2017-10-13T07:33:15.449Z,54.24
2017-10-13T07:34:24.779Z,54.14
2017-10-13T07:35:34.155Z,54.14
2017-10-13T07:36:43.152Z,54.24
2017-10-13T07:37:51.840Z,54.14
2017-10-13T07:39:00.492Z,54.14
2017-10-13T07:40:09.825Z,54.24
2017-10-13T07:41:19.117Z,54.33
2017-10-13T07:42:28.161Z,54.33
2017-10-13T07:43:37.484Z,54.24
2017-10-13T07:44:46.472Z,54.33
2017-10-13T07:45:55.503Z,54.24
2017-10-13T07:47:04.950Z,54.24
2017-10-13T07:48:14.330Z,54.24
2017-10-13T07:49:23.384Z,53.85
2017-10-13T07:50:32.368Z,54.43
2017-10-13T07:51:41.360Z,54.33
2017-10-13T07:52:50.697Z,54.14
2017-10-13T07:54:00.356Z,54.05
2017-10-13T07:55:09.020Z,54.14
2017-10-13T07:56:17.695Z,53.95
2017-10-13T07:57:26.361Z,53.95
2017-10-13T07:58:35.396Z,53.95
2017-10-13T07:59:44.130Z,53.95
2017-10-13T08:00:52.838Z,54.43
2017-10-13T08:02:02.240Z,53.95
2017-10-13T08:03:10.898Z,53.85
2017-10-13T08:04:20.221Z,53.75
2017-10-13T08:05:29.211Z,53.85
2017-10-13T08:06:38.878Z,54.05
2017-10-13T08:07:48.196Z,54.05
2017-10-13T08:08:58.544Z,54.05
2017-10-13T08:10:07.199Z,54.05
2017-10-13T08:11:16.203Z,53.85
2017-10-13T08:12:25.554Z,53.85
2017-10-13T08:13:34.871Z,54.24
2017-10-13T08:14:44.510Z,54.14
2017-10-13T08:15:53.207Z,54.05
2017-10-13T08:17:02.561Z,53.85
2017-10-13T08:18:12.120Z,54.05
2017-10-13T08:19:21.754Z,54.14
2017-10-13T08:20:31.748Z,53.85
2017-10-13T08:21:41.078Z,53.85
2017-10-13T08:22:50.433Z,53.95
2017-10-13T08:23:59.111Z,53.85
2017-10-13T08:25:09.099Z,54.05
2017-10-13T08:26:18.156Z,53.85
2017-10-13T08:27:27.156Z,53.85
2017-10-13T08:28:36.449Z,53.85
2017-10-13T08:29:45.818Z,54.05
2017-10-13T08:30:54.802Z,54.05
2017-10-13T08:32:03.794Z,53.85
2017-10-13T08:33:13.438Z,53.85
2017-10-13T08:34:22.436Z,53.85
2017-10-13T08:35:31.859Z,53.85
2017-10-13T08:36:40.530Z,53.75
2017-10-13T08:37:49.393Z,54.05
2017-10-13T08:38:58.714Z,53.95
2017-10-13T08:40:09.557Z,53.85
2017-10-13T08:41:18.869Z,54.05
2017-10-13T08:42:27.872Z,53.95
2017-10-13T08:43:37.529Z,53.85
2017-10-13T08:44:46.193Z,53.85
2017-10-13T08:45:55.191Z,54.05
2017-10-13T08:47:04.186Z,53.95
2017-10-13T08:48:13.491Z,54.24
2017-10-13T08:49:22.222Z,54.05
2017-10-13T08:50:30.894Z,53.95
2017-10-13T08:51:39.888Z,53.47
2017-10-13T08:52:48.986Z,53.56
2017-10-13T08:53:57.980Z,53.66
2017-10-13T08:55:07.031Z,54.24
2017-10-13T08:56:15.694Z,53.66
2017-10-13T08:57:24.696Z,53.37
2017-10-13T08:58:33.363Z,53.56
2017-10-13T08:59:42.019Z,53.3
2017-10-13T09:00:50.704Z,53.2
2017-10-13T09:02:00.018Z,53.11
2017-10-13T09:03:09.648Z,53.3
2017-10-13T09:04:18.963Z,53.01
2017-10-13T09:05:27.625Z,53.3
2017-10-13T09:06:36.619Z,53.2
2017-10-13T09:07:45.307Z,53.2
2017-10-13T09:08:55.008Z,53.3
2017-10-13T09:10:03.996Z,53.2
2017-10-13T09:11:13.696Z,53.2
2017-10-13T09:12:23.023Z,53.01
2017-10-13T09:13:32.023Z,53.3
2017-10-13T09:14:41.006Z,53.78
2017-10-13T09:15:49.660Z,53.88
2017-10-13T09:16:59.294Z,53.01
2017-10-13T09:18:08.313Z,53.49
2017-10-13T09:19:17.018Z,53.39
2017-10-13T09:20:25.667Z,53.69
2017-10-13T09:21:35.055Z,53.3
2017-10-13T09:22:43.711Z,53.11
2017-10-13T09:23:52.725Z,53.3
2017-10-13T09:25:01.705Z,53.37
2017-10-13T09:26:11.022Z,53.59
2017-10-13T09:27:20.831Z,53.47
2017-10-13T09:28:30.236Z,53.47
2017-10-13T09:29:39.212Z,53.3
2017-10-13T09:30:47.880Z,53.78
2017-10-13T09:31:56.531Z,53.66
2017-10-13T09:33:05.651Z,53.37
2017-10-13T09:34:14.357Z,53.3
2017-10-13T09:35:23.361Z,53.59
2017-10-13T09:36:32.377Z,53.3
2017-10-13T09:37:41.410Z,53.49
2017-10-13T09:38:50.783Z,53.49
2017-10-13T09:39:59.443Z,53.49
2017-10-13T09:41:08.442Z,53.2
2017-10-13T09:42:17.140Z,53.11
2017-10-13T09:43:26.180Z,53.11
2017-10-13T09:44:34.870Z,53.2
2017-10-13T09:45:43.548Z,53.39
2017-10-13T09:46:52.218Z,53.2
2017-10-13T09:48:01.220Z,53.39
2017-10-13T09:49:11.226Z,53.3
2017-10-13T09:50:20.303Z,53.39
2017-10-13T09:51:29.930Z,53.39
2017-10-13T09:52:38.926Z,53.39
2017-10-13T09:53:47.988Z,53.39
2017-10-13T09:54:56.983Z,53.49
2017-10-13T09:56:05.995Z,53.39
2017-10-13T09:57:14.673Z,53.39
2017-10-13T09:58:23.678Z,53.2
2017-10-13T09:59:32.707Z,53.3
2017-10-13T10:00:42.032Z,53.3
2017-10-13T10:01:51.724Z,53.3
2017-10-13T10:03:00.702Z,53.49
2017-10-13T10:04:10.358Z,53.49
2017-10-13T10:05:19.353Z,53.59
2017-10-13T10:06:28.013Z,53.39
2017-10-13T10:07:37.045Z,53.2
2017-10-13T10:08:46.046Z,53.11
2017-10-13T10:09:55.408Z,53.3
2017-10-13T10:11:04.773Z,53.3
2017-10-13T10:12:13.749Z,53.3
2017-10-13T10:13:23.758Z,53.01
2017-10-13T10:14:32.750Z,53.2
2017-10-13T10:15:41.867Z,53.39
2017-10-13T10:16:50.864Z,53.2
2017-10-13T10:18:00.178Z,53.49
2017-10-13T10:19:09.205Z,53.59
2017-10-13T10:20:17.838Z,53.49
2017-10-13T10:21:26.905Z,53.49
2017-10-13T10:22:35.565Z,53.2
2017-10-13T10:23:44.551Z,53.39
2017-10-13T10:24:53.217Z,53.39
2017-10-13T10:26:02.526Z,53.59
2017-10-13T10:27:11.542Z,53.3
2017-10-13T10:28:20.207Z,53.39
2017-10-13T10:29:29.533Z,53.2
2017-10-13T10:30:38.858Z,53.49
2017-10-13T10:31:48.209Z,53.3
2017-10-13T10:32:57.200Z,53.69
2017-10-13T10:34:05.857Z,53.61
2017-10-13T10:35:14.512Z,53.11
2017-10-13T10:36:23.568Z,53.2
2017-10-13T10:37:32.225Z,52.81
2017-10-13T10:38:41.865Z,53.42
2017-10-13T10:39:50.863Z,52.91
2017-10-13T10:41:00.185Z,53.2
2017-10-13T10:42:09.846Z,53.49
2017-10-13T10:43:18.520Z,53.49
2017-10-13T10:44:27.510Z,53.59
2017-10-13T10:45:36.170Z,53.11
2017-10-13T10:46:45.216Z,53.49
2017-10-13T10:47:54.305Z,53.11
2017-10-13T10:49:03.295Z,53.33
2017-10-13T10:50:12.622Z,53.2
2017-10-13T10:51:21.320Z,53.2
2017-10-13T10:52:30.300Z,53.33
2017-10-13T10:53:40.288Z,53.69
2017-10-13T10:54:49.615Z,53.49
2017-10-13T10:55:58.590Z,53.3
2017-10-13T10:57:07.615Z,53.69
2017-10-13T10:58:16.620Z,53.52
2017-10-13T10:59:25.975Z,53.33
2017-10-13T11:00:35.015Z,53.11
2017-10-13T11:01:43.988Z,53.13
2017-10-13T11:02:53.655Z,53.11
2017-10-13T11:04:02.998Z,53.33
2017-10-13T11:05:11.649Z,52.94
2017-10-13T11:06:20.951Z,53.13
2017-10-13T11:07:29.602Z,53.2
2017-10-13T11:08:38.296Z,53.23
2017-10-13T11:09:47.299Z,53.59
2017-10-13T11:10:55.963Z,53.13
2017-10-13T11:12:04.649Z,53.03
2017-10-13T11:13:13.982Z,53.13
2017-10-13T11:14:22.966Z,53.13
2017-10-13T11:15:32.276Z,52.94
2017-10-13T11:16:42.044Z,52.94
2017-10-13T11:17:50.710Z,53.13
2017-10-13T11:19:00.042Z,53.03
2017-10-13T11:20:09.022Z,53.42
2017-10-13T11:21:18.008Z,53.49
2017-10-13T11:22:27.654Z,53.52
2017-10-13T11:23:36.309Z,53.33
2017-10-13T11:24:45.637Z,53.39
2017-10-13T11:25:54.282Z,53.39
2017-10-13T11:27:03.277Z,53.42
2017-10-13T11:28:11.932Z,53.2
2017-10-13T11:29:20.917Z,53.52
2017-10-13T11:30:29.898Z,53.33
2017-10-13T11:31:38.867Z,53.23
2017-10-13T11:32:48.199Z,53.03
2017-10-13T11:33:57.856Z,53.11
2017-10-13T11:35:06.617Z,53.11
2017-10-13T11:36:15.612Z,53.01
2017-10-13T11:37:24.291Z,53.13
2017-10-13T11:38:33.632Z,53.2
2017-10-13T11:39:42.719Z,53.2
2017-10-13T11:40:52.026Z,52.91
2017-10-13T11:42:01.043Z,53.69
2017-10-13T11:43:10.696Z,53.49
2017-10-13T11:44:19.675Z,53.39
2017-10-13T11:45:29.028Z,52.91
2017-10-13T11:46:38.354Z,53.78
2017-10-13T11:47:47.426Z,53.11
2017-10-13T11:48:56.428Z,53.69
2017-10-13T11:50:05.773Z,53.2
2017-10-13T11:51:15.100Z,53.23
2017-10-13T11:52:24.425Z,53.3
2017-10-13T11:53:34.076Z,53.52
2017-10-13T11:54:42.746Z,53.42
2017-10-13T11:55:51.417Z,53.33
2017-10-13T11:57:00.735Z,53.52
2017-10-13T11:58:10.060Z,53.23
2017-10-13T11:59:19.073Z,53.61
2017-10-13T12:00:28.453Z,53.49
2017-10-13T12:01:37.449Z,53.13
2017-10-13T12:02:46.788Z,53.49
2017-10-13T12:03:55.456Z,53.52
2017-10-13T12:05:04.784Z,53.33
2017-10-13T12:06:13.794Z,53.2
2017-10-13T12:07:22.788Z,53.23
2017-10-13T12:08:31.762Z,53.33
2017-10-13T12:09:40.740Z,53.42
2017-10-13T12:10:50.053Z,53.23
2017-10-13T12:11:59.042Z,53.33
2017-10-13T12:13:08.055Z,53.03
2017-10-13T12:14:16.721Z,53.33
2017-10-13T12:15:26.355Z,53.03
2017-10-13T12:16:35.330Z,53.61
2017-10-13T12:17:44.330Z,53.11
2017-10-13T12:18:53.056Z,53.69
2017-10-13T12:20:02.098Z,53.11
2017-10-13T12:21:11.117Z,53.33
2017-10-13T12:22:20.097Z,53.13
2017-10-13T12:23:29.094Z,53.13
2017-10-13T12:24:38.783Z,53.88
2017-10-13T12:25:48.099Z,53.23
2017-10-13T12:26:57.436Z,53.03
2017-10-13T12:28:06.761Z,53.42
2017-10-13T12:29:15.745Z,53.23
2017-10-13T12:30:24.723Z,53.52
2017-10-13T12:31:34.050Z,53.42
2017-10-13T12:32:43.469Z,53.52
2017-10-13T12:33:52.148Z,53.33
2017-10-13T12:35:01.136Z,53.33
2017-10-13T12:36:09.856Z,52.94
2017-10-13T12:37:18.857Z,53.13
2017-10-13T12:38:27.842Z,53.42
2017-10-13T12:39:36.838Z,53.42
2017-10-13T12:40:46.166Z,53.23
2017-10-13T12:41:55.165Z,53.33
2017-10-13T12:43:04.878Z,53.42
2017-10-13T12:44:13.568Z,53.42
2017-10-13T12:45:22.258Z,53.33
2017-10-13T12:46:32.225Z,53.81
2017-10-13T12:47:41.211Z,53.91
2017-10-13T12:48:49.880Z,53.13
2017-10-13T12:49:58.534Z,53.91
2017-10-13T12:51:07.522Z,53.13
2017-10-13T12:52:16.833Z,53.03
2017-10-13T12:53:25.498Z,53.59
2017-10-13T12:54:34.791Z,53.61
2017-10-13T12:55:44.130Z,53.78
2017-10-13T12:56:53.134Z,53.69
2017-10-13T12:58:02.462Z,53.69
2017-10-13T12:59:11.442Z,53.88
2017-10-13T13:00:20.151Z,53.81
2017-10-13T13:01:29.183Z,53.11
2017-10-13T13:02:37.833Z,53.13
2017-10-13T13:03:47.158Z,53.13
2017-10-13T13:04:56.164Z,53.2
2017-10-13T13:06:05.822Z,53.71
2017-10-13T13:07:14.502Z,53.52
2017-10-13T13:08:23.831Z,53.39
2017-10-13T13:09:32.557Z,53.71
2017-10-13T13:10:42.239Z,53.52
2017-10-13T13:11:51.260Z,53.3
2017-10-13T13:13:00.577Z,53.3
2017-10-13T13:14:09.901Z,53.49
2017-10-13T13:15:19.231Z,53.39
2017-10-13T13:16:28.265Z,53.59
2017-10-13T13:17:37.367Z,53.3
2017-10-13T13:18:46.403Z,53.49
2017-10-13T13:19:55.055Z,53.71
2017-10-13T13:21:04.043Z,53.3
2017-10-13T13:22:13.685Z,53.33
2017-10-13T13:23:22.347Z,53.2
2017-10-13T13:24:31.409Z,53.61
2017-10-13T13:25:40.108Z,53.3
2017-10-13T13:26:49.092Z,53.2
2017-10-13T13:27:58.746Z,53.71
2017-10-13T13:29:07.835Z,53.52
2017-10-13T13:30:17.149Z,53.61
2017-10-13T13:31:26.137Z,53.61
2017-10-13T13:32:35.477Z,53.49
2017-10-13T13:33:44.790Z,53.78
2017-10-13T13:34:53.794Z,53.3
2017-10-13T13:36:03.107Z,53.2
2017-10-13T13:37:12.436Z,53.42
2017-10-13T13:38:21.096Z,53.49
2017-10-13T13:39:30.409Z,53.33
2017-10-13T13:40:39.797Z,53.23
2017-10-13T13:41:48.791Z,53.52
2017-10-13T13:42:57.789Z,53.52
2017-10-13T13:44:06.478Z,53.01
2017-10-13T13:45:15.806Z,53.03
2017-10-13T13:46:25.148Z,53.2
2017-10-13T13:47:34.497Z,53.52
2017-10-13T13:48:43.169Z,53.23
2017-10-13T13:49:52.168Z,53.13
2017-10-13T13:51:01.808Z,53.61
2017-10-13T13:52:10.788Z,53.33
2017-10-13T13:53:19.457Z,53.13
2017-10-13T13:54:28.779Z,53.81
2017-10-13T13:55:37.785Z,53.81
2017-10-13T13:56:46.786Z,53.23
2017-10-13T13:57:55.774Z,53.71
2017-10-13T13:59:04.746Z,53.52
2017-10-13T14:00:13.730Z,53.13
2017-10-13T14:01:22.398Z,52.91
2017-10-13T14:02:31.383Z,52.94
2017-10-13T14:03:40.437Z,53.59
2017-10-13T14:04:49.099Z,53.61
2017-10-13T14:05:58.748Z,53.69
2017-10-13T14:07:07.745Z,53.71
2017-10-13T14:08:16.748Z,53.71
2017-10-13T14:09:25.751Z,53.71
2017-10-13T14:10:35.419Z,53.52
2017-10-13T14:11:44.111Z,53.61
2017-10-13T14:12:53.100Z,53.61
2017-10-13T14:14:01.768Z,53.49
2017-10-13T14:15:10.444Z,53.39
2017-10-13T14:16:20.095Z,53.33
2017-10-13T14:17:29.103Z,53.42
2017-10-13T14:18:38.091Z,53.3
2017-10-13T14:19:46.757Z,53.59
2017-10-13T14:20:56.105Z,53.69
2017-10-13T14:22:05.428Z,53.52
2017-10-13T14:23:14.147Z,53.3
2017-10-13T14:24:23.131Z,53.49
2017-10-13T14:25:32.116Z,53.3
2017-10-13T14:26:40.772Z,53.39
2017-10-13T14:27:50.401Z,53.39
2017-10-13T14:28:59.055Z,53.81
2017-10-13T14:30:08.697Z,53.3
2017-10-13T14:31:18.020Z,53.3
2017-10-13T14:32:27.354Z,53.39
2017-10-13T14:33:36.676Z,53.61
2017-10-13T14:34:45.356Z,53.59
2017-10-13T14:35:54.086Z,53.88
2017-10-13T14:37:03.464Z,54
2017-10-13T14:38:12.538Z,53.49
2017-10-13T14:39:21.550Z,53.59
2017-10-13T14:40:30.208Z,53.39
2017-10-13T14:41:39.529Z,53.69
2017-10-13T14:42:48.548Z,53.49
2017-10-13T14:43:58.209Z,53.33
2017-10-13T14:45:07.204Z,53.59
2017-10-13T14:46:16.538Z,53.2
2017-10-13T14:47:25.541Z,53.88
2017-10-13T14:48:34.540Z,53.91
2017-10-13T14:49:43.885Z,53.71
2017-10-13T14:50:53.205Z,53.69
2017-10-13T14:52:02.515Z,53.52
2017-10-13T14:53:11.822Z,53.52
2017-10-13T14:54:21.125Z,53.3
2017-10-13T14:55:29.793Z,53.42
2017-10-13T14:56:39.120Z,53.39
2017-10-13T14:57:48.116Z,53.49
2017-10-13T14:58:56.779Z,53.33
2017-10-13T15:00:05.440Z,53.39
2017-10-13T15:01:14.092Z,53.3